Airfield :
LOGIN :

Register | Disclaimer

   EN    FR    IT 

 










Legend :    VFR   Marginal VFR   IFR   Intensive IFR   Very Intensive IFR
Visi :
Ceiling :
>= 8 km
>= 3000ft
5 to 8 km
1000 to 3000 ft
1500m to 5 km
500 to 1000 ft
800 to 1500m
200 to 500 ft
< 800m
< 200 ft
Symbols :   Thunderstorms  Fog  Heavy snow  Heavy precipitations  Wind > 20 kt
SIGMETs :     Misc.  Thunderstorms  Icing  Turbulence  Mountain Waves  Volcanic Ashes






- Airport Elevation : 2731 ft
- IATA code : LPY


LFHP - Le Puy Loudes

CURRENT METAR :
  • 151330Z AUTO 19004KT 150V240 9999 FEW043 14/05 Q1011

EXPIRED METARs :
  • 151300Z AUTO 21006KT 150V260 9999 FEW041 BKN047 13/05 Q1011
  • 151230Z AUTO 20005KT 140V240 9999 OVC044 14/05 Q1011
  • 151200Z AUTO 21006KT 160V240 9999 OVC039 13/05 Q1011
  • 151130Z AUTO 20004KT 130V270 9999 OVC040 12/04 Q1011
  • 151100Z AUTO 18005KT 140V220 9999 OVC041 12/05 Q1012

Expired Forecast.



MET'MAP, your aeronautical weather chart ! - Copyright ORBIFLY December 2007 - Disclaimer

ORBIFLY MET'MAP TEAM :

Programming & Development : Alexandra Zaïnal
Concept & original design : Baudouin d'Aumeries
Assistance for programming : Marc-Olivier Méhu
Technical & hardware support : Manuel Goepfert

Contact : metmap@orbifly.com




SOURCES & CREDITS :

   NOAA